Time;durP1;ratioP1;P1;durP2;ratioP2;P2;SDS_P1;SDS_P2;PMS_P1;PMS_P2;Temp;Humidity;BMP_temperature;BMP_pressure;BME280_temperature;BME280_humidity;BME280_pressure;Samples;Min_cycle;Max_cycle;Signal;HPM_P1;HPM_P2
2022/11/13 00:00:53;;;;;;;9.77;7.63;;;;;;;-142.75;100.00;78755.91;5080302;28;20024;-67
2022/11/13 00:03:19;;;;;;;7.93;6.50;;;;;;;-142.75;100.00;78730.28;5080044;28;20050;-68
2022/11/13 00:05:44;;;;;;;7.70;6.57;;;;;;;-142.75;100.00;78740.13;5085652;28;20530;-67
2022/11/13 00:08:10;;;;;;;18.00;11.50;;;;;;;-142.75;100.00;78720.44;5064048;28;20058;-68
2022/11/13 00:10:35;;;;;;;19.80;13.05;;;;;;;-142.75;100.00;78706.66;5081799;28;20127;-68
2022/11/13 00:13:01;;;;;;;13.52;10.30;;;;;;;-142.75;100.00;78708.63;5086469;28;20477;-67
2022/11/13 00:15:26;;;;;;;12.63;7.43;;;;;;;-142.75;100.00;78708.63;5086611;28;20024;-67
2022/11/13 00:17:51;;;;;;;7.25;6.15;;;;;;;-142.75;100.00;78724.38;5067266;28;20034;-67
2022/11/13 00:20:17;;;;;;;9.55;7.93;;;;;;;-142.75;100.00;78734.22;5084398;28;20068;-67
2022/11/13 00:22:43;;;;;;;;;;;;;;;-142.75;100.00;78740.13;5089535;28;20042;-67
2022/11/13 00:25:08;;;;;;;8.93;6.00;;;;;;;-142.75;100.00;78744.09;5074521;28;19948;-67
2022/11/13 00:27:34;;;;;;;10.15;7.15;;;;;;;-142.75;100.00;78751.97;5081038;28;20116;-67
2022/11/13 00:29:59;;;;;;;8.53;6.63;;;;;;;-142.75;100.00;78744.09;5073688;28;20031;-67
2022/11/13 00:32:25;;;;;;;8.20;6.95;;;;;;;-142.75;100.00;78748.03;5067642;28;20299;-67
2022/11/13 00:34:50;;;;;;;;;;;;;;;-142.75;100.00;78767.72;5075904;28;20055;-67
2022/11/13 00:37:16;;;;;;;12.60;7.87;;;;;;;-142.75;100.00;78746.03;5086724;28;20380;-67
2022/11/13 00:39:41;;;;;;;11.67;8.63;;;;;;;-142.75;100.00;78726.34;5087673;28;20027;-67
2022/11/13 00:42:06;;;;;;;14.10;10.23;;;;;;;-142.75;100.00;78700.75;5085078;28;20348;-66
2022/11/13 00:44:31;;;;;;;11.80;8.40;;;;;;;-142.75;100.00;78700.75;5083194;28;20875;-67
2022/11/13 00:46:57;;;;;;;18.60;11.27;;;;;;;-142.75;100.00;78700.75;5085851;28;20280;-68
2022/11/13 00:49:22;;;;;;;17.10;10.90;;;;;;;-142.75;100.00;78686.97;5085218;28;20279;-67
2022/11/13 00:51:47;;;;;;;10.60;7.23;;;;;;;-142.75;100.00;78694.84;5086228;28;20275;-68
2022/11/13 00:54:12;;;;;;;14.80;9.52;;;;;;;-142.75;100.00;78692.88;5068834;28;20276;-67
2022/11/13 00:56:38;;;;;;;16.58;10.07;;;;;;;-142.75;100.00;78667.25;5084362;28;20024;-67
2022/11/13 00:59:03;;;;;;;17.88;10.45;;;;;;;-142.75;100.00;78657.41;5068322;28;20112;-67
2022/11/13 01:01:28;;;;;;;17.30;10.67;;;;;;;-142.75;100.00;78633.78;5080607;28;20760;-67
2022/11/13 01:03:54;;;;;;;15.43;10.38;;;;;;;-142.75;100.00;78633.78;5072396;28;20235;-68
2022/11/13 01:06:22;;;;;;;15.00;8.88;;;;;;;-142.75;100.00;78653.47;5040241;28;20028;-65
2022/11/13 01:08:49;;;;;;;8.27;6.33;;;;;;;-142.75;100.00;78685.00;5065400;22;20066;-67
2022/11/13 01:11:15;;;;;;;;;;;;;;;-142.75;100.00;78667.25;5055796;27;20095;-67
2022/11/13 01:13:43;;;;;;;16.75;8.55;;;;;;;-142.75;100.00;78647.56;5046370;27;20283;-67
2022/11/13 01:16:11;;;;;;;14.83;9.40;;;;;;;-142.75;100.00;78629.84;5053834;27;20130;-66
2022/11/13 01:18:36;;;;;;;16.93;9.67;;;;;;;-142.75;100.00;78633.78;5024445;28;20221;-66
2022/11/13 01:21:07;;;;;;;17.05;9.90;;;;;;;-142.75;100.00;78629.84;5040421;28;20348;-66
2022/11/13 01:23:35;;;;;;;13.33;9.70;;;;;;;-142.75;100.00;78625.91;5039272;28;20598;-66
2022/11/13 01:26:09;;;;;;;15.20;9.65;;;;;;;-142.75;100.00;78618.03;5023546;28;20032;-66
2022/11/13 01:28:35;;;;;;;19.52;10.82;;;;;;;-142.75;100.00;78612.13;5021644;28;20558;-66
2022/11/13 01:31:05;;;;;;;16.35;10.07;;;;;;;-142.75;100.00;78604.25;5041273;28;20027;-65
2022/11/13 01:33:30;;;;;;;15.83;10.10;;;;;;;-142.75;100.00;78598.34;5042659;28;20053;-66
2022/11/13 01:36:01;;;;;;;18.85;9.52;;;;;;;-142.75;100.00;78590.47;5024169;28;20332;-66
2022/11/13 01:38:26;;;;;;;14.67;9.60;;;;;;;-142.75;100.00;78596.38;5043940;28;20076;-66
2022/11/13 01:40:52;;;;;;;15.55;9.48;;;;;;;-142.75;100.00;78600.31;5044114;28;20023;-66
2022/11/13 01:43:24;;;;;;;18.63;8.85;;;;;;;-142.75;100.00;78600.31;5042557;28;20333;-66
2022/11/13 01:45:59;;;;;;;14.75;8.70;;;;;;;-142.75;100.00;78606.22;5024268;28;20108;-66
2022/11/13 01:48:37;;;;;;;14.35;8.20;;;;;;;-142.75;100.00;78627.88;5044539;28;20019;-66
2022/11/13 01:51:12;;;;;;;11.23;6.85;;;;;;;-142.75;100.00;78641.66;5043281;28;20031;-66
2022/11/13 01:53:41;;;;;;;9.33;5.83;;;;;;;-142.75;100.00;78657.41;5044343;28;20023;-65
2022/11/13 01:56:06;;;;;;;8.47;5.70;;;;;;;-142.75;100.00;78659.38;5042147;28;20134;-66
2022/11/13 01:58:32;;;;;;;9.05;6.15;;;;;;;-142.75;100.00;78692.88;5041888;28;20336;-66
2022/11/13 02:00:58;;;;;;;9.38;6.00;;;;;;;-142.75;100.00;78696.81;5042352;28;20332;-66
2022/11/13 02:03:24;;;;;;;6.00;4.35;;;;;;;-142.75;100.00;78698.78;5024871;28;20410;-66
2022/11/13 02:05:50;;;;;;;10.13;5.15;;;;;;;-142.75;100.00;78696.81;5042208;28;20414;-66
2022/11/13 02:08:15;;;;;;;9.80;6.00;;;;;;;-142.75;100.00;78706.66;5042421;28;20030;-66
2022/11/13 02:10:42;;;;;;;11.88;6.90;;;;;;;-142.75;100.00;78704.69;5041903;28;20336;-66
2022/11/13 02:13:09;;;;;;;8.43;5.83;;;;;;;-142.75;100.00;78732.25;5023365;28;20659;-66
2022/11/13 02:15:34;;;;;;;7.97;5.20;;;;;;;-142.75;100.00;78744.09;5013020;28;20031;-66
2022/11/13 02:18:01;;;;;;;8.75;5.32;;;;;;;-142.75;100.00;78755.91;5043066;28;20328;-66
2022/11/13 02:20:56;;;;;;;7.53;5.23;;;;;;;-142.75;100.00;78753.94;5024617;28;20034;-66
2022/11/13 02:23:40;;;;;;;8.23;5.60;;;;;;;-142.75;100.00;78779.53;5030301;28;20449;-66
2022/11/13 02:26:08;;;;;;;8.63;6.00;;;;;;;-142.75;100.00;78787.41;5041869;28;20028;-66
2022/11/13 02:28:33;;;;;;;9.17;6.03;;;;;;;-142.75;100.00;78767.72;5041808;28;20019;-66
2022/11/13 02:31:09;;;;;;;7.68;5.78;;;;;;;-142.75;100.00;78763.78;5041663;28;20317;-66
2022/11/13 02:33:34;;;;;;;12.50;6.90;;;;;;;-142.75;100.00;78751.97;5041923;28;20027;-66
2022/11/13 02:36:01;;;;;;;11.88;7.32;;;;;;;-142.75;100.00;78744.09;5041413;28;20349;-66
2022/11/13 02:38:26;;;;;;;;;;;;;;;-142.75;100.00;78748.03;5041970;28;20028;-66
2022/11/13 02:40:52;;;;;;;10.33;6.57;;;;;;;-142.75;100.00;78748.03;5020628;28;20264;-65
2022/11/13 02:43:17;;;;;;;11.73;7.13;;;;;;;-142.75;100.00;78730.28;5041838;28;20356;-66
2022/11/13 02:45:43;;;;;;;9.77;6.63;;;;;;;-142.75;100.00;78716.50;5042098;28;20316;-66
2022/11/13 02:48:08;;;;;;;9.27;6.05;;;;;;;-142.75;100.00;78742.09;5040772;28;20470;-65
2022/11/13 02:50:36;;;;;;;7.43;4.90;;;;;;;-142.75;100.00;78767.72;5041748;28;20359;-66
2022/11/13 02:53:02;;;;;;;7.77;3.73;;;;;;;-142.75;100.00;78775.59;5020968;28;20023;-66
2022/11/13 02:55:28;;;;;;;6.33;3.97;;;;;;;-142.75;100.00;78791.34;5041262;28;20027;-66
2022/11/13 02:57:53;;;;;;;8.27;5.43;;;;;;;-142.75;100.00;78783.47;5041777;28;20534;-65
2022/11/13 03:00:19;;;;;;;7.30;4.82;;;;;;;-142.75;100.00;78775.59;5043222;28;20370;-66
2022/11/13 03:02:45;;;;;;;7.68;4.72;;;;;;;-142.75;100.00;78773.63;5046090;28;20332;-66
2022/11/13 03:05:10;;;;;;;8.40;4.93;;;;;;;-142.75;100.00;78775.59;5045364;28;20332;-66
2022/11/13 03:07:36;;;;;;;7.75;4.88;;;;;;;-142.75;100.00;78783.47;5044913;28;20084;-66
2022/11/13 03:10:02;;;;;;;5.72;3.85;;;;;;;-142.75;100.00;78783.47;5045476;28;20324;-67
2022/11/13 03:12:27;;;;;;;6.93;4.35;;;;;;;-142.75;100.00;78787.41;5027035;28;20293;-66
2022/11/13 03:14:53;;;;;;;6.32;4.10;;;;;;;-142.75;100.00;78769.69;5045132;28;20542;-66
2022/11/13 03:17:18;;;;;;;10.38;5.90;;;;;;;-142.75;100.00;78753.94;5044979;28;20329;-67
2022/11/13 03:19:44;;;;;;;7.45;4.90;;;;;;;-142.75;100.00;78759.84;5045249;28;20297;-67
2022/11/13 03:22:09;;;;;;;8.38;4.53;;;;;;;-142.75;100.00;78775.59;5045274;28;20184;-67
2022/11/13 03:24:34;;;;;;;4.65;3.58;;;;;;;-142.75;100.00;78809.06;5045408;28;20349;-67
2022/11/13 03:27:01;;;;;;;4.28;3.35;;;;;;;-142.75;100.00;78834.69;5045257;28;20356;-67
2022/11/13 03:29:26;;;;;;;;;;;;;;;-142.75;100.00;78870.13;5027138;28;20564;-65
2022/11/13 03:31:51;;;;;;;5.03;3.17;;;;;;;-142.75;100.00;78878.00;5044934;28;19908;-67
2022/11/13 03:34:17;;;;;;;4.88;3.55;;;;;;;-142.75;100.00;78866.19;5044765;28;20389;-67
2022/11/13 03:36:42;;;;;;;5.00;3.28;;;;;;;-142.75;100.00;78846.50;5044659;28;20313;-67
2022/11/13 03:39:08;;;;;;;5.93;4.40;;;;;;;-142.75;100.00;78838.63;5026030;28;20189;-66
2022/11/13 03:41:34;;;;;;;7.18;4.57;;;;;;;-142.75;100.00;78818.91;5044631;28;20195;-66
2022/11/13 03:43:59;;;;;;;18.85;7.38;;;;;;;-142.75;100.00;78795.28;5044665;28;20324;-67
2022/11/13 03:46:25;;;;;;;12.27;7.85;;;;;;;-142.75;100.00;78779.53;5044447;28;20410;-67
2022/11/13 03:48:50;;;;;;;13.32;7.93;;;;;;;-142.75;100.00;78775.59;5044590;28;20517;-67
2022/11/13 03:51:16;;;;;;;12.85;6.70;;;;;;;-142.75;100.00;78767.72;5044588;28;20047;-67
2022/11/13 03:53:41;;;;;;;8.43;5.22;;;;;;;-142.75;100.00;78769.69;5044991;28;20306;-67
2022/11/13 03:56:07;;;;;;;10.88;6.25;;;;;;;-142.75;100.00;78763.78;5044767;28;20364;-67
2022/11/13 03:58:32;;;;;;;8.07;4.75;;;;;;;-142.75;100.00;78775.59;5044370;28;20344;-67
2022/11/13 04:00:58;;;;;;;5.38;3.88;;;;;;;-142.75;100.00;78773.63;5026058;28;20474;-67
2022/11/13 04:03:23;;;;;;;5.78;3.92;;;;;;;-142.75;100.00;78771.66;5026496;28;20189;-67
2022/11/13 04:05:50;;;;;;;6.93;3.65;;;;;;;-142.75;100.00;78773.63;5044379;28;20362;-67
2022/11/13 04:08:16;;;;;;;7.43;5.07;;;;;;;-142.75;100.00;78763.78;5043664;28;20028;-67
2022/11/13 04:10:42;;;;;;;10.90;5.77;;;;;;;-142.75;100.00;78757.88;5026159;28;20131;-66
2022/11/13 04:13:08;;;;;;;8.50;6.13;;;;;;;-142.75;100.00;78765.75;5043311;28;20023;-67
2022/11/13 04:15:34;;;;;;;8.95;5.55;;;;;;;-142.75;100.00;78763.78;5025614;28;20294;-67
2022/11/13 04:17:59;;;;;;;11.02;5.55;;;;;;;-142.75;100.00;78750.00;5043540;28;20320;-67
2022/11/13 04:20:26;;;;;;;8.25;5.88;;;;;;;-142.75;100.00;78759.84;5044587;28;20312;-66
2022/11/13 04:22:53;;;;;;;11.27;5.63;;;;;;;-142.75;100.00;78771.66;5025727;28;20687;-66
2022/11/13 04:25:18;;;;;;;9.80;6.07;;;;;;;-142.75;100.00;78765.75;5044320;28;20027;-67
2022/11/13 04:27:44;;;;;;;10.07;6.32;;;;;;;-142.75;100.00;78755.91;5043709;28;20338;-67
2022/11/13 04:30:10;;;;;;;8.05;5.85;;;;;;;-142.75;100.00;78757.88;5025497;28;20317;-66
2022/11/13 04:32:35;;;;;;;10.23;5.90;;;;;;;-142.75;100.00;78751.97;5043659;28;20462;-67
2022/11/13 04:35:01;;;;;;;14.05;7.43;;;;;;;-142.75;100.00;78740.13;5044034;28;20304;-67
2022/11/13 04:37:26;;;;;;;10.80;6.50;;;;;;;-142.75;100.00;78744.09;5043242;28;20398;-67
2022/11/13 04:39:52;;;;;;;14.45;7.32;;;;;;;-142.75;100.00;78740.13;5043496;28;20363;-67
2022/11/13 04:45:01;;;;;;;9.93;5.87;;;;;;;-142.75;100.00;78746.03;5043472;28;20324;-66
2022/11/13 04:47:27;;;;;;;8.30;5.18;;;;;;;-142.75;100.00;78742.09;5043397;28;20611;-67
2022/11/13 04:49:52;;;;;;;7.07;3.90;;;;;;;-142.75;100.00;78742.09;5043306;28;20642;-67
2022/11/13 04:52:18;;;;;;;8.43;5.10;;;;;;;-142.75;100.00;78748.03;5043477;28;20323;-67
2022/11/13 04:54:44;;;;;;;6.93;4.50;;;;;;;-142.75;100.00;78742.09;5043319;28;20329;-67
2022/11/13 04:57:09;;;;;;;8.65;4.32;;;;;;;-142.75;100.00;78736.19;5043036;28;20329;-66
2022/11/13 04:59:35;;;;;;;7.78;5.63;;;;;;;-142.75;100.00;78728.31;5024907;28;20336;-67
2022/11/13 05:02:00;;;;;;;8.85;5.32;;;;;;;-142.75;100.00;78720.44;5043411;28;20309;-67
2022/11/13 05:04:26;;;;;;;10.52;6.57;;;;;;;-142.75;100.00;78706.66;5024723;28;20426;-66
2022/11/13 05:06:51;;;;;;;10.95;6.07;;;;;;;-142.75;100.00;78704.69;5043070;28;20023;-66
2022/11/13 05:09:17;;;;;;;13.20;5.53;;;;;;;-142.75;100.00;78686.97;5024576;28;20422;-67
2022/11/13 05:11:42;;;;;;;11.00;6.32;;;;;;;-142.75;100.00;78685.00;5042931;28;20348;-67
2022/11/13 05:14:11;;;;;;;12.68;6.57;;;;;;;-142.75;100.00;78669.25;5043090;28;20344;-67
2022/11/13 05:16:36;;;;;;;12.23;6.43;;;;;;;-142.75;100.00;78667.25;5042861;28;20056;-66
2022/11/13 05:19:05;;;;;;;15.30;7.72;;;;;;;-142.75;100.00;78671.22;5042730;28;20333;-67
2022/11/13 05:21:36;;;;;;;11.37;6.70;;;;;;;-142.75;100.00;78681.06;5043808;28;20020;-67
2022/11/13 05:24:02;;;;;;;7.50;5.57;;;;;;;-142.75;100.00;78685.00;5042618;28;20031;-67
2022/11/13 05:26:28;;;;;;;8.60;4.72;;;;;;;-142.75;100.00;78692.88;5043696;28;20560;-67
2022/11/13 05:28:57;;;;;;;;;;;;;;;-142.75;100.00;78696.81;5024452;28;20023;-67
2022/11/13 05:31:24;;;;;;;7.23;4.53;;;;;;;-142.75;100.00;78706.66;5024079;28;19912;-66
2022/11/13 05:33:50;;;;;;;7.60;3.90;;;;;;;-142.75;100.00;78728.31;5042561;28;20015;-67
2022/11/13 05:36:17;;;;;;;7.78;5.05;;;;;;;-142.75;100.00;78730.28;5024220;28;20365;-67
2022/11/13 05:38:42;;;;;;;9.53;5.90;;;;;;;-142.75;100.00;78724.38;5023722;28;20569;-66
2022/11/13 05:41:12;;;;;;;11.63;6.15;;;;;;;-142.75;100.00;78706.66;5024887;28;20023;-66
2022/11/13 05:43:38;;;;;;;9.87;5.43;;;;;;;-142.75;100.00;78700.75;5042303;28;20020;-67
2022/11/13 05:46:27;;;;;;;;;;;;;;;-142.75;100.00;78704.69;5042688;28;20016;-67
2022/11/13 05:48:57;;;;;;;8.98;4.85;;;;;;;-142.75;100.00;78714.53;5042291;28;19943;-66
2022/11/13 05:51:25;;;;;;;8.10;5.10;;;;;;;-142.75;100.00;78736.19;5019999;28;20130;-66
2022/11/13 05:53:52;;;;;;;9.60;5.50;;;;;;;-142.75;100.00;78742.09;5042149;28;20031;-67
2022/11/13 05:56:19;;;;;;;11.87;6.80;;;;;;;-142.75;100.00;78738.16;5042145;28;20023;-67
2022/11/13 05:58:46;;;;;;;11.73;6.67;;;;;;;-142.75;100.00;78736.19;5042059;28;20059;-67
2022/11/13 06:01:18;;;;;;;11.43;6.97;;;;;;;-142.75;100.00;78726.34;5042112;28;20058;-67
2022/11/13 06:03:44;;;;;;;10.63;6.23;;;;;;;-142.75;100.00;78724.38;5041909;28;20019;-66
2022/11/13 06:06:18;;;;;;;11.07;5.37;;;;;;;-142.75;100.00;78712.56;5042045;28;20179;-67
2022/11/13 06:08:45;;;;;;;7.03;4.60;;;;;;;-142.75;100.00;78716.50;5038729;28;20166;-67
2022/11/13 06:11:13;;;;;;;9.57;5.03;;;;;;;-142.75;100.00;78698.78;5041707;28;20031;-67
2022/11/13 06:13:39;;;;;;;9.47;5.00;;;;;;;-142.75;100.00;78708.63;5042027;28;20035;-67
2022/11/13 06:16:10;;;;;;;6.00;3.13;;;;;;;-142.75;100.00;78726.34;5041486;28;20028;-67
2022/11/13 06:18:37;;;;;;;9.93;5.17;;;;;;;-142.75;100.00;78708.63;5042399;28;20024;-66
2022/11/13 06:21:06;;;;;;;11.17;5.50;;;;;;;-142.75;100.00;78696.81;5041707;28;20019;-67
2022/11/13 06:23:33;;;;;;;11.90;6.07;;;;;;;-142.75;100.00;78702.72;5041233;28;20023;-67
2022/11/13 06:26:04;;;;;;;12.40;5.90;;;;;;;-142.75;100.00;78685.00;5041656;28;20027;-68
2022/11/13 06:28:30;;;;;;;9.83;5.47;;;;;;;-142.75;100.00;78700.75;5041320;28;20019;-68
2022/11/13 06:31:01;;;;;;;9.55;5.75;;;;;;;-142.75;100.00;78690.91;5023452;28;20386;-68
2022/11/13 06:33:27;;;;;;;9.00;4.40;;;;;;;-142.75;100.00;78694.84;5036380;28;20031;-68
2022/11/13 06:35:52;;;;;;;8.83;5.33;;;;;;;-142.75;100.00;78686.97;5041511;28;20208;-68
2022/11/13 06:38:18;;;;;;;9.48;5.40;;;;;;;-142.75;100.00;78679.09;5041141;28;20437;-68
2022/11/13 06:40:44;;;;;;;9.95;5.55;;;;;;;-142.75;100.00;78688.94;5023100;28;20430;-69
2022/11/13 06:43:09;;;;;;;9.27;5.53;;;;;;;-142.75;100.00;78677.13;5041282;28;20417;-68
2022/11/13 06:45:35;;;;;;;10.55;6.03;;;;;;;-142.75;100.00;78677.13;5041450;28;20478;-68
2022/11/13 06:48:00;;;;;;;7.88;4.80;;;;;;;-142.75;100.00;78677.13;5041319;28;20328;-68
2022/11/13 06:50:26;;;;;;;6.88;4.68;;;;;;;-142.75;100.00;78686.97;5023115;28;20317;-68
2022/11/13 06:52:51;;;;;;;7.40;4.68;;;;;;;-142.75;100.00;78673.19;5041195;28;20328;-68
2022/11/13 06:55:17;;;;;;;9.48;5.35;;;;;;;-142.75;100.00;78681.06;5041096;28;20374;-68
2022/11/13 06:57:42;;;;;;;8.95;5.15;;;;;;;-142.75;100.00;78696.81;5041114;28;20317;-68
2022/11/13 07:00:08;;;;;;;11.00;5.85;;;;;;;-142.75;100.00;78694.84;5022737;28;20567;-68
2022/11/13 07:02:34;;;;;;;13.77;5.93;;;;;;;-142.75;100.00;78692.88;5041181;28;20024;-68
2022/11/13 07:04:59;;;;;;;8.73;5.90;;;;;;;-142.75;100.00;78696.81;5041543;28;20328;-68
2022/11/13 07:07:25;;;;;;;8.25;5.68;;;;;;;-142.75;100.00;78681.06;5041036;28;20324;-68
2022/11/13 07:09:50;;;;;;;10.80;5.50;;;;;;;-142.75;100.00;78681.06;5073356;22;20212;-68
2022/11/13 07:12:16;;;;;;;7.80;5.45;;;;;;;-142.75;100.00;78690.91;5052072;28;20339;-68
2022/11/13 07:14:41;;;;;;;8.68;5.43;;;;;;;-142.75;100.00;78686.97;5054426;28;20426;-68
2022/11/13 07:17:07;;;;;;;11.02;5.00;;;;;;;-142.75;100.00;78681.06;5053146;28;20456;-67
2022/11/13 07:19:32;;;;;;;8.02;5.00;;;;;;;-142.75;100.00;78663.31;5057827;28;20461;-69
2022/11/13 07:21:58;;;;;;;11.77;5.95;;;;;;;-142.75;100.00;78637.72;5057350;28;20332;-67
2022/11/13 07:24:23;;;;;;;10.20;6.38;;;;;;;-142.75;100.00;78627.88;5048445;28;20019;-68
2022/11/13 07:26:49;;;;;;;9.77;5.75;;;;;;;-142.75;100.00;78627.88;5047179;28;20388;-68
2022/11/13 07:29:14;;;;;;;8.63;5.78;;;;;;;-142.75;100.00;78598.34;5052397;28;20069;-69
2022/11/13 07:31:40;;;;;;;12.60;6.32;;;;;;;-142.75;100.00;78592.44;5033675;28;20502;-69
2022/11/13 07:34:05;;;;;;;8.63;5.60;;;;;;;-142.75;100.00;78566.81;5058560;28;20158;-70
2022/11/13 07:36:31;;;;;;;10.32;6.30;;;;;;;-142.75;100.00;78535.31;5055326;28;20406;-69
2022/11/13 07:38:56;;;;;;;11.95;6.00;;;;;;;-142.75;100.00;78503.81;5047804;28;20340;-69
2022/11/13 07:41:22;;;;;;;11.40;6.13;;;;;;;-142.75;100.00;78488.03;5052491;28;20348;-68
2022/11/13 07:43:47;;;;;;;10.70;6.30;;;;;;;-142.75;100.00;78460.47;5045180;28;20340;-69
2022/11/13 07:46:13;;;;;;;13.13;6.63;;;;;;;-142.75;100.00;78440.78;5051658;28;20455;-69
2022/11/13 07:48:38;;;;;;;11.32;6.50;;;;;;;-142.75;100.00;78403.38;5052625;27;20398;-68
2022/11/13 07:51:04;;;;;;;12.05;5.93;;;;;;;-142.75;100.00;78362.00;5053201;27;20305;-68
2022/11/13 07:53:29;;;;;;;9.50;5.60;;;;;;;-142.75;100.00;78322.63;5056365;27;20023;-68
2022/11/13 07:55:55;;;;;;;11.10;5.90;;;;;;;-142.75;100.00;78283.22;5055263;27;20421;-68
2022/11/13 07:58:20;;;;;;;9.80;5.85;;;;;;;-142.75;100.00;78253.69;5060120;27;20181;-69
2022/11/13 08:00:46;;;;;;;9.80;6.00;;;;;;;-142.75;100.00;78232.03;5057377;27;20056;-68
2022/11/13 08:03:14;;;;;;;9.50;6.20;;;;;;;-142.75;100.00;78228.09;5054176;27;20448;-69
2022/11/13 08:05:40;;;;;;;10.18;5.55;;;;;;;-142.75;100.00;78190.69;5060876;27;20069;-68
2022/11/13 08:08:06;;;;;;;9.82;5.72;;;;;;;-142.75;100.00;78170.97;5040895;28;20016;-66
2022/11/13 08:10:32;;;;;;;10.02;5.68;;;;;;;-142.75;100.00;78137.50;5057913;27;20430;-66
2022/11/13 08:13:01;;;;;;;8.55;4.55;;;;;;;-142.75;100.00;78129.63;5051169;27;20546;-66
2022/11/13 08:15:31;;;;;;;10.45;5.75;;;;;;;-142.75;100.00;78129.63;5054346;27;20126;-66
2022/11/13 08:17:57;;;;;;;11.00;5.32;;;;;;;-142.75;100.00;78090.25;5054410;27;20028;-67
2022/11/13 08:20:24;;;;;;;9.00;5.00;;;;;;;-142.75;100.00;78058.72;5056939;27;20046;-69
2022/11/13 08:22:50;;;;;;;9.77;5.10;;;;;;;-142.75;100.00;78017.38;5037125;27;20131;-66
2022/11/13 08:25:16;;;;;;;8.70;5.45;;;;;;;-142.75;100.00;77976.03;5052375;27;20413;-66
2022/11/13 08:27:42;;;;;;;14.68;5.43;;;;;;;-142.75;100.00;77960.28;5054649;27;20046;-68
2022/11/13 08:30:08;;;;;;;9.48;5.40;;;;;;;-142.75;100.00;77928.78;5052606;27;20328;-70
2022/11/13 08:32:34;;;;;;;9.23;5.68;;;;;;;-142.75;100.00;77915.00;5036375;27;20031;-70
2022/11/13 08:34:59;;;;;;;9.38;5.20;;;;;;;-142.75;100.00;77905.13;5054468;27;20377;-68
2022/11/13 08:37:25;;;;;;;9.88;5.50;;;;;;;-142.75;100.00;77909.06;5046986;27;20328;-67
2022/11/13 08:39:50;;;;;;;9.43;5.70;;;;;;;-142.75;100.00;77857.88;5053651;27;20193;-67
2022/11/13 08:42:16;;;;;;;10.15;5.07;;;;;;;-142.75;100.00;77826.38;5055194;27;20317;-68
2022/11/13 08:44:41;;;;;;;;;;;;;;;-142.75;100.00;77794.88;5053545;27;20447;-68
2022/11/13 08:47:07;;;;;;;12.45;5.82;;;;;;;-142.75;100.00;77794.88;5051240;27;20244;-69
2022/11/13 08:49:32;;;;;;;8.35;5.00;;;;;;;-142.75;100.00;77794.88;5051636;27;20331;-67
2022/11/13 08:51:58;;;;;;;;;;;;;;;-142.75;100.00;77783.06;5043310;27;20034;-69
2022/11/13 08:54:24;;;;;;;14.38;5.43;;;;;;;-142.75;100.00;77779.13;5045367;27;19908;-66
2022/11/13 08:56:49;;;;;;;11.82;6.25;;;;;;;-142.75;100.00;77735.81;5049049;27;20191;-65
2022/11/13 08:59:15;;;;;;;11.55;6.45;;;;;;;-142.75;100.00;77680.66;5048009;27;20325;-65
2022/11/13 09:01:40;;;;;;;;;;;;;;;-142.75;100.00;77657.03;5058235;27;20319;-67
2022/11/13 09:04:06;;;;;;;10.80;6.60;;;;;;;-142.75;100.00;77621.59;5047417;27;20092;-67
2022/11/13 09:06:31;;;;;;;;;;;;;;;-142.75;100.00;77582.22;5054840;27;20301;-69
2022/11/13 09:08:57;;;;;;;8.60;4.82;;;;;;;-142.75;100.00;77601.91;5052595;27;20189;-70
2022/11/13 09:11:26;;;;;;;;;;;;;;;-142.75;100.00;77578.28;5029333;28;20356;-66
2022/11/13 09:13:52;;;;;;;8.85;4.63;;;;;;;-142.75;100.00;77534.97;5055427;27;20013;-66
2022/11/13 09:16:17;;;;;;;7.82;5.00;;;;;;;-142.75;100.00;77527.09;5048733;27;20320;-68
2022/11/13 09:18:43;;;;;;;7.97;5.45;;;;;;;-142.75;100.00;77509.38;5046422;27;20192;-66
2022/11/13 09:21:09;;;;;;;;;;;;;;;-142.75;100.00;77517.25;5036490;27;20347;-68
2022/11/13 09:23:35;;;;;;;7.53;5.03;;;;;;;-142.75;100.00;77511.34;5031826;28;19915;-66
2022/11/13 09:26:02;;;;;;;;;;;;;;;-142.75;100.00;77515.28;5055611;27;20354;-66
2022/11/13 09:28:28;;;;;;;9.52;5.60;;;;;;;-142.75;100.00;77489.69;5041606;28;19912;-66
2022/11/13 09:30:53;;;;;;;;;;;;;;;-142.75;100.00;77503.47;5057367;27;20310;-66
2022/11/13 09:33:18;;;;;;;9.20;4.93;;;;;;;-142.75;100.00;77517.25;5051629;27;20025;-67
2022/11/13 09:35:44;;;;;;;;;;;;;;;-142.75;100.00;77527.09;5051633;27;20348;-66
2022/11/13 09:38:12;;;;;;;8.30;5.03;;;;;;;-142.75;100.00;77493.63;5049632;27;20443;-67
2022/11/13 09:40:48;;;;;;;7.82;5.10;;;;;;;-142.75;100.00;77462.13;5053554;27;20097;-66
2022/11/13 09:43:34;;;;;;;8.73;5.60;;;;;;;-142.75;100.00;77462.13;5045446;27;20590;-67
2022/11/13 09:46:07;;;;;;;8.80;5.00;;;;;;;-142.75;100.00;77434.53;5052419;27;20042;-66
2022/11/13 09:48:40;;;;;;;7.57;4.82;;;;;;;-142.75;100.00;77424.69;5034982;27;20054;-66
2022/11/13 09:51:14;;;;;;;8.32;4.88;;;;;;;-142.75;100.00;77408.94;5041601;27;20024;-67
2022/11/13 09:53:40;;;;;;;8.38;5.63;;;;;;;-142.75;100.00;77440.44;5048779;27;20050;-66
2022/11/13 09:56:24;;;;;;;7.10;5.15;;;;;;;-142.75;100.00;77440.44;5050128;27;20055;-67
2022/11/13 09:58:56;;;;;;;8.13;5.45;;;;;;;-142.75;100.00;77468.03;5028441;27;20062;-67
2022/11/13 10:01:42;;;;;;;8.27;5.40;;;;;;;-142.75;100.00;77456.22;5048509;27;20515;-66
2022/11/13 10:04:14;;;;;;;8.85;5.35;;;;;;;-142.75;100.00;77440.44;5051030;27;20049;-69
2022/11/13 10:06:51;;;;;;;7.28;4.95;;;;;;;-142.75;100.00;77436.50;5054615;27;20089;-67
2022/11/13 10:09:42;;;;;;;9.27;5.50;;;;;;;-142.75;100.00;77399.09;5051898;27;20560;-66
2022/11/13 10:12:08;;;;;;;7.65;4.65;;;;;;;-142.75;100.00;77416.81;5050067;27;20130;-67
2022/11/13 10:14:41;;;;;;;7.40;5.05;;;;;;;-142.75;100.00;77416.81;5048107;27;20034;-67
2022/11/13 10:17:33;;;;;;;8.13;5.03;;;;;;;-142.75;100.00;77405.00;5027346;27;20551;-67
2022/11/13 10:20:07;;;;;;;8.05;4.22;;;;;;;-142.75;100.00;77397.13;5048147;27;20051;-67
2022/11/13 10:22:32;;;;;;;8.40;4.80;;;;;;;-142.75;100.00;77365.63;5048767;27;20024;-67
2022/11/13 10:25:18;;;;;;;;;;;;;;;-142.75;100.00;77332.16;5053143;27;20250;-66
2022/11/13 10:27:51;;;;;;;7.97;4.63;;;;;;;-142.75;100.00;77288.84;5054887;27;20075;-67
2022/11/13 10:30:18;;;;;;;8.00;4.70;;;;;;;-142.75;97.80;77308.53;5053126;27;20049;-65
2022/11/13 10:32:45;;;;;;;8.40;4.80;;;;;;;-142.75;97.18;77336.09;5054288;27;20107;-66
2022/11/13 10:35:40;;;;;;;7.90;4.93;;;;;;;-142.75;99.85;77363.66;5048998;27;20769;-66
2022/11/13 10:38:11;;;;;;;8.75;4.47;;;;;;;-142.75;99.93;77326.25;5051834;27;20042;-66
2022/11/13 10:40:39;;;;;;;7.53;4.85;;;;;;;-142.75;97.27;77294.75;5055992;28;20039;-67
2022/11/13 10:43:12;;;;;;;8.10;4.97;;;;;;;-142.75;97.41;77279.00;5054429;28;20050;-67
2022/11/13 10:45:38;;;;;;;7.40;4.18;;;;;;;-142.75;96.80;77251.44;5050811;28;20023;-66
2022/11/13 10:48:05;;;;;;;7.35;4.50;;;;;;;-142.75;94.72;77206.16;5054641;28;20016;-65
2022/11/13 10:50:31;;;;;;;6.70;4.32;;;;;;;-142.75;96.04;77172.69;5052942;28;20031;-66
2022/11/13 10:52:57;;;;;;;8.13;4.57;;;;;;;-142.75;97.97;77188.44;5051949;28;20544;-65
2022/11/13 10:55:29;;;;;;;;;;;;;;;-142.75;96.42;77149.06;5033747;28;20099;-66
2022/11/13 10:58:00;;;;;;;7.63;5.47;;;;;;;-142.75;95.16;77129.38;5058494;28;19942;-66
2022/11/13 11:00:43;;;;;;;7.97;5.35;;;;;;;-142.75;92.56;77111.66;5054626;28;20031;-66
2022/11/13 11:03:23;;;;;;;9.55;5.57;;;;;;;-142.75;92.99;77113.63;5052509;28;20032;-67
2022/11/13 11:06:02;;;;;;;8.95;5.68;;;;;;;-142.75;92.97;77121.50;5044172;28;20051;-67
2022/11/13 11:08:31;;;;;;;7.72;4.82;;;;;;;-142.75;92.82;77105.75;5052176;28;20027;-68
2022/11/13 11:13:43;;;;;;;9.00;5.30;;;;;;;-142.75;89.12;77036.84;5041690;28;20104;-67
2022/11/13 11:16:16;;;;;;;8.32;5.50;;;;;;;-142.75;87.91;77078.19;5046223;28;20097;-67
2022/11/13 11:18:58;;;;;;;9.27;6.05;;;;;;;-142.75;90.44;77060.47;5045523;28;20110;-67